Time;durP1;ratioP1;P1;durP2;ratioP2;P2;SDS_P1;SDS_P2;PMS_P1;PMS_P2;Temp;Humidity;BMP_temperature;BMP_pressure;BME280_temperature;BME280_humidity;BME280_pressure;Samples;Min_cycle;Max_cycle;Signal;HPM_P1;HPM_P2
2023/04/19 00:02:30;;;;;;;;;;;;;;;;;;4948483;29;20056;-90
2023/04/19 00:05:00;;;;;;;;;;;;;;;;;;4924517;29;19917;-90
2023/04/19 00:13:44;;;;;;;;;;;;;;;;;;4989207;28;20276;-89
2023/04/19 00:16:27;;;;;;;;;;;;;;;;;;5028146;28;19914;-91
2023/04/19 00:19:02;;;;;;;;;;;;;;;;;;5023358;28;19968;-89
2023/04/19 00:25:16;;;;;;;;;;;;;;;;;;5034180;28;19909;-89
2023/04/19 00:27:41;;;;;;;;;;;;;;;;;;5022567;28;19949;-88
2023/04/19 00:30:10;;;;;;;;;;;;;;;;;;5047603;28;19907;-89
2023/04/19 00:32:38;;;;;;;;;;;;;;;;;;5066249;28;20645;-88
2023/04/19 00:35:07;;;;;;;;;;;;;;;;;;5081495;28;19917;-90
2023/04/19 00:37:44;;;;;;;;;;;;;;;;;;5082335;28;19916;-88
2023/04/19 00:40:20;;;;;;;;;;;;;;;;;;5088152;28;19913;-87
2023/04/19 00:42:46;;;;;;;;;;;;;;;;;;5083537;28;19961;-87
2023/04/19 00:45:14;;;;;;;;;;;;;;;;;;5072453;28;20175;-87
2023/04/19 00:48:01;;;;;;;;;;;;;;;;;;5096025;28;19935;-90
2023/04/19 00:50:27;;;;;;;;;;;;;;;;;;5067444;28;19927;-90
2023/04/19 00:53:01;;;;;;;;;;;;;;;;;;5054417;28;19912;-88
2023/04/19 00:55:36;;;;;;;;;;;;;;;;;;5065177;28;19912;-91
2023/04/19 00:58:07;;;;;;;;;;;;;;;;;;5042360;28;19916;-91
2023/04/19 01:00:36;;;;;;;;;;;;;;;;;;5047607;28;20038;-92
2023/04/19 01:03:12;;;;;;;;;;;;;;;;;;5097929;28;20015;-92
2023/04/19 01:05:40;;;;;;;;;;;;;;;;;;5062964;28;19912;-89
2023/04/19 01:08:07;;;;;;;;;;;;;;;;;;5075072;28;19912;-90
2023/04/19 01:13:33;;;;;;;;;;;;;;;;;;5083741;28;19916;-89
2023/04/19 01:15:59;;;;;;;;;;;;;;;;;;5064995;28;19935;-91
2023/04/19 01:21:45;;;;;;;;;;;;;;;;;;5077247;28;19912;-91
2023/04/19 01:24:21;;;;;;;;;;;;;;;;;;5074249;28;19938;-87
2023/04/19 01:26:56;;;;;;;;;;;;;;;;;;5089197;28;19946;-89
2023/04/19 01:29:59;;;;;;;;;;;;;;;;;;;;;
2023/04/19 01:32:58;;;;;;;;;;;;;;;;;;5077189;28;19912;-89
2023/04/19 01:38:26;;;;;;;;;;;;;;;;;;5065309;28;19920;-91
2023/04/19 01:40:55;;;;;;;;;;;;;;;;;;5080085;28;19915;-91
2023/04/19 01:43:24;;;;;;;;;;;;;;;;;;5057300;28;19916;-93
2023/04/19 01:52:31;;;;;;;;;;;;;;;;;;5093580;28;19927;-93
2023/04/19 01:55:19;;;;;;;;;;;;;;;;;;5058156;28;19951;-90
2023/04/19 01:58:26;;;;;;;;;;;;;;;;;;5082679;28;19966;-90
2023/04/19 02:03:49;;;;;;;;;;;;;;;;;;5064483;28;19943;-92
2023/04/19 02:06:18;;;;;;;;;;;;;;;;;;5077936;28;19922;-91
2023/04/19 02:08:54;;;;;;;;;;;;;;;;;;5066062;28;20272;-91
2023/04/19 02:11:35;;;;;;;;;;;;;;;;;;5077112;28;20229;-92
2023/04/19 02:14:24;;;;;;;;;;;;;;;;;;4980259;28;19913;-91
2023/04/19 02:16:49;;;;;;;;;;;;;;;;;;4990877;28;19996;-88
2023/04/19 02:19:35;;;;;;;;;;;;;;;;;;5014696;28;19928;-91
2023/04/19 02:22:09;;;;;;;;;;;;;;;;;;4989977;28;20022;-88
2023/04/19 02:27:24;;;;;;;;;;;;;;;;;;5019868;28;19987;-90
2023/04/19 02:33:54;;;;;;;;;;;;;;;;;;4969359;28;19964;-91
2023/04/19 02:46:11;;;;;;;;;;;;;;;;;;4878875;29;19934;-92
2023/04/19 02:48:37;;;;;;;;;;;;;;;;;;4919173;29;19919;-90
2023/04/19 02:51:35;;;;;;;;;;;;;;;;;;4968078;28;19960;-90
2023/04/19 02:54:12;;;;;;;;;;;;;;;;;;4988821;28;19913;-89
2023/04/19 02:56:53;;;;;;;;;;;;;;;;;;;;;
2023/04/19 02:59:26;;;;;;;;;;;;;;;;;;5021095;28;19917;-90
2023/04/19 03:01:58;;;;;;;;;;;;;;;;;;5028335;28;20006;-90
2023/04/19 03:07:41;;;;;;;;;;;;;;;;;;5037463;28;20265;-91
2023/04/19 03:10:10;;;;;;;;;;;;;;;;;;5026354;28;19913;-93
2023/04/19 03:13:10;;;;;;;;;;;;;;;;;;5079974;28;19980;-94
2023/04/19 03:16:00;;;;;;;;;;;;;;;;;;;;;
2023/04/19 03:18:51;;;;;;;;;;;;;;;;;;5025843;28;19928;-92
2023/04/19 03:21:45;;;;;;;;;;;;;;;;;;;;;
2023/04/19 03:24:11;;;;;;;;;;;;;;;;;;5087974;28;19913;-89
2023/04/19 03:27:00;;;;;;;;;;;;;;;;;;5049806;28;19920;-93
2023/04/19 03:49:09;;;;;;;;;;;;;;;;;;4912019;29;19926;-90
2023/04/19 03:55:13;;;;;;;;;;;;;;;;;;4855423;29;19946;-91
2023/04/19 03:58:12;;;;;;;;;;;;;;;;;;4896309;29;19916;-91
2023/04/19 04:00:43;;;;;;;;;;;;;;;;;;4892779;29;19923;-90
2023/04/19 04:03:49;;;;;;;;;;;;;;;;;;4905277;29;20013;-92
2023/04/19 04:06:20;;;;;;;;;;;;;;;;;;4917295;29;19925;-89
2023/04/19 04:12:05;;;;;;;;;;;;;;;;;;4943658;28;21687;-89
2023/04/19 04:14:37;;;;;;;;;;;;;;;;;;5016836;28;20008;-92
2023/04/19 04:17:17;;;;;;;;;;;;;;;;;;5050930;28;19924;-91
2023/04/19 04:20:04;;;;;;;;;;;;;;;;;;;;;
2023/04/19 04:22:31;;;;;;;;;;;;;;;;;;5074493;28;19916;-91
2023/04/19 04:25:07;;;;;;;;;;;;;;;;;;;;;
2023/04/19 04:35:05;;;;;;;;;;;;;;;;;;;;;
2023/04/19 04:38:18;;;;;;;;;;;;;;;;;;4924053;29;19939;-89
2023/04/19 04:41:40;;;;;;;;;;;;;;;;;;5043835;28;19928;-89
2023/04/19 04:47:55;;;;;;;;;;;;;;;;;;5089099;22;20726;-70
2023/04/19 04:50:21;;;;;;;;;;;;;;;;;;5005062;28;19948;-71
2023/04/19 04:52:49;;;;;;;;;;;;;;;;;;5002580;28;20040;-70
2023/04/19 04:55:14;;;;;;;;;;;;;;;;;;5018495;28;19939;-71
2023/04/19 04:57:42;;;;;;;;;;;;;;;;;;5021301;28;19921;-70
2023/04/19 05:00:11;;;;;;;;;;;;;;;;;;5023651;28;20360;-70
2023/04/19 05:02:39;;;;;;;;;;;;;;;;;;5022803;28;19925;-70
2023/04/19 05:05:05;;;;;;;;;;;;;;;;;;5026562;28;19917;-69
2023/04/19 05:07:32;;;;;;;;;;;;;;;;;;5035891;28;19917;-69
2023/04/19 05:10:01;;;;;;;;;;;;;;;;;;5030476;28;20030;-70
2023/04/19 05:12:26;;;;;;;;;;;;;;;;;;5047272;28;20402;-70
2023/04/19 05:14:52;;;;;;;;;;;;;;;;;;5009167;28;19955;-69
2023/04/19 05:17:17;;;;;;;;;;;;;;;;;;5028098;28;20135;-67
2023/04/19 05:19:43;;;;;;;;;;;;;;;;;;5024541;28;19924;-70
2023/04/19 05:22:08;;;;;;;;;;;;;;;;;;5028916;28;20010;-69
2023/04/19 05:24:33;;;;;;;;;;;;;;;;;;5025434;28;20087;-70
2023/04/19 05:27:00;;;;;;;;;;;;;;;;;;5010549;28;19921;-69
2023/04/19 05:29:26;;;;;;;;;;;;;;;;;;5030449;28;20035;-68
2023/04/19 05:31:51;;;;;;;;;;;;;;;;;;5043939;28;19916;-68
2023/04/19 05:34:16;;;;;;;;;;;;;;;;;;5030164;28;19932;-69
2023/04/19 05:36:45;;;;;;;;;;;;;;;;;;5044100;28;19924;-69
2023/04/19 05:39:11;;;;;;;;;;;;;;;;;;5031330;28;19942;-70
2023/04/19 05:41:36;;;;;;;;;;;;;;;;;;5025539;28;20368;-69
2023/04/19 05:44:01;;;;;;;;;;;;;;;;;;5023505;28;20022;-69
2023/04/19 05:46:27;;;;;;;;;;;;;;;;;;5042560;28;20387;-69
2023/04/19 05:48:52;;;;;;;;;;;;;;;;;;5037422;28;19959;-68
2023/04/19 05:51:17;;;;;;;;;;;;;;;;;;5050072;28;19960;-69
2023/04/19 05:53:48;;;;;;;;;;;;;;;;;;5028069;28;20269;-69
2023/04/19 05:56:14;;;;;;;;;;;;;;;;;;5023791;28;20063;-66
2023/04/19 05:58:42;;;;;;;;;;;;;;;;;;5026845;28;19928;-68
2023/04/19 06:01:07;;;;;;;;;;;;;;;;;;5045824;28;20310;-68
2023/04/19 06:03:33;;;;;;;;;;;;;;;;;;5015428;28;19920;-68
2023/04/19 06:06:01;;;;;;;;;;;;;;;;;;5046706;28;19979;-69
2023/04/19 06:08:26;;;;;;;;;;;;;;;;;;5028440;28;20015;-71
2023/04/19 06:10:53;;;;;;;;;;;;;;;;;;5046042;28;19924;-68
2023/04/19 06:13:18;;;;;;;;;;;;;;;;;;5013061;28;19927;-68
2023/04/19 06:15:44;;;;;;;;;;;;;;;;;;5029823;28;19912;-69
2023/04/19 06:18:10;;;;;;;;;;;;;;;;;;5049011;28;19977;-68
2023/04/19 06:20:35;;;;;;;;;;;;;;;;;;5046939;28;20406;-69
2023/04/19 06:23:01;;;;;;;;;;;;;;;;;;5029696;28;19920;-69
2023/04/19 06:25:26;;;;;;;;;;;;;;;;;;5029286;28;19952;-69
2023/04/19 06:27:52;;;;;;;;;;;;;;;;;;5049109;28;20670;-68
2023/04/19 06:30:17;;;;;;;;;;;;;;;;;;5026453;28;19927;-68
2023/04/19 06:32:42;;;;;;;;;;;;;;;;;;5047894;28;19920;-68
2023/04/19 06:38:24;;;;;;;;;;;;;;;;;;5047214;28;19927;-68
2023/04/19 06:40:49;;;;;;;;;;;;;;;;;;5027022;28;19959;-68
2023/04/19 06:43:20;;;;;;;;;;;;;;;;;;5011218;28;19924;-69
2023/04/19 06:45:46;;;;;;;;;;;;;;;;;;5029577;28;19917;-69
2023/04/19 06:48:11;;;;;;;;;;;;;;;;;;5006251;28;19956;-69
2023/04/19 06:50:39;;;;;;;;;;;;;;;;;;5037275;28;20329;-69
2023/04/19 06:53:07;;;;;;;;;;;;;;;;;;5025380;28;20493;-69
2023/04/19 06:55:32;;;;;;;;;;;;;;;;;;5026680;28;19920;-69
2023/04/19 06:57:58;;;;;;;;;;;;;;;;;;5041637;28;19923;-67
2023/04/19 07:00:23;;;;;;;;;;;;;;;;;;5027788;28;20597;-68
2023/04/19 07:02:49;;;;;;;;;;;;;;;;;;5026130;28;20019;-69
2023/04/19 07:05:15;;;;;;;;;;;;;;;;;;5012344;28;19922;-67
2023/04/19 07:07:44;;;;;;;;;;;;;;;;;;5041502;28;20028;-68
2023/04/19 07:10:11;;;;;;;;;;;;;;;;;;5023923;28;20373;-68
2023/04/19 07:12:39;;;;;;;;;;;;;;;;;;5029923;28;20388;-68
2023/04/19 07:15:04;;;;;;;;;;;;;;;;;;5028419;28;20394;-67
2023/04/19 07:17:30;;;;;;;;;;;;;;;;;;5024642;28;19920;-70
2023/04/19 07:19:55;;;;;;;;;;;;;;;;;;5023579;28;20007;-71
2023/04/19 07:22:21;;;;;;;;;;;;;;;;;;5011920;28;20677;-69
2023/04/19 07:24:50;;;;;;;;;;;;;;;;;;5025886;28;19916;-69
2023/04/19 07:27:17;;;;;;;;;;;;;;;;;;5027311;28;19921;-71
2023/04/19 07:29:42;;;;;;;;;;;;;;;;;;5023116;28;20032;-70
2023/04/19 07:32:08;;;;;;;;;;;;;;;;;;5033765;28;20140;-70
2023/04/19 07:34:33;;;;;;;;;;;;;;;;;;5026448;28;21694;-70
2023/04/19 07:36:58;;;;;;;;;;;;;;;;;;5027062;28;19927;-68
2023/04/19 07:39:24;;;;;;;;;;;;;;;;;;5024307;28;20005;-69
2023/04/19 07:41:49;;;;;;;;;;;;;;;;;;5021379;28;20272;-68
2023/04/19 07:44:15;;;;;;;;;;;;;;;;;;5026116;28;19917;-68
2023/04/19 07:46:40;;;;;;;;;;;;;;;;;;5006967;28;19990;-68
2023/04/19 07:49:06;;;;;;;;;;;;;;;;;;5036029;28;19925;-68
2023/04/19 07:51:31;;;;;;;;;;;;;;;;;;5028290;28;20356;-67
2023/04/19 07:57:13;;;;;;;;;;;;;;;;;;5046272;28;20598;-68
2023/04/19 07:59:41;;;;;;;;;;;;;;;;;;5045350;28;20422;-68
2023/04/19 08:02:06;;;;;;;;;;;;;;;;;;5049695;28;20011;-71
2023/04/19 08:04:32;;;;;;;;;;;;;;;;;;5014931;28;20363;-68
2023/04/19 08:06:58;;;;;;;;;;;;;;;;;;5049172;28;19916;-69
2023/04/19 08:09:26;;;;;;;;;;;;;;;;;;5044482;28;20007;-68
2023/04/19 08:11:52;;;;;;;;;;;;;;;;;;5029620;28;19920;-66
2023/04/19 08:14:20;;;;;;;;;;;;;;;;;;5014560;28;19924;-72
2023/04/19 08:16:46;;;;;;;;;;;;;;;;;;5051046;28;20015;-67
2023/04/19 08:19:11;;;;;;;;;;;;;;;;;;5047922;28;19925;-70
2023/04/19 08:21:36;;;;;;;;;;;;;;;;;;5047608;28;20457;-70
2023/04/19 08:24:02;;;;;;;;;;;;;;;;;;5028950;28;19920;-69
2023/04/19 08:26:39;;;;;;;;;;;;;;;;;;5030059;28;19921;-67
2023/04/19 08:29:06;;;;;;;;;;;;;;;;;;5049509;28;20382;-67
2023/04/19 08:31:32;;;;;;;;;;;;;;;;;;5029996;28;19956;-69
2023/04/19 08:33:59;;;;;;;;;;;;;;;;;;5026390;28;20016;-68
2023/04/19 08:36:25;;;;;;;;;;;;;;;;;;5016491;28;19920;-70
2023/04/19 08:38:50;;;;;;;;;;;;;;;;;;5044786;28;19921;-67
2023/04/19 08:41:16;;;;;;;;;;;;;;;;;;5029496;28;20040;-69
2023/04/19 08:43:44;;;;;;;;;;;;;;;;;;5046747;28;19924;-67
2023/04/19 08:46:09;;;;;;;;;;;;;;;;;;5048317;28;19927;-68
2023/04/19 08:48:35;;;;;;;;;;;;;;;;;;5044254;28;19937;-68
2023/04/19 08:51:01;;;;;;;;;;;;;;;;;;5026948;28;20182;-69
2023/04/19 08:53:26;;;;;;;;;;;;;;;;;;5027873;28;19928;-71
2023/04/19 08:55:57;;;;;;;;;;;;;;;;;;5022752;28;19921;-69
2023/04/19 08:58:23;;;;;;;;;;;;;;;;;;5028066;28;19920;-68
2023/04/19 09:00:49;;;;;;;;;;;;;;;;;;5011187;28;20904;-69
2023/04/19 09:03:15;;;;;;;;;;;;;;;;;;5026401;28;19981;-68
2023/04/19 09:05:40;;;;;;;;;;;;;;;;;;5023561;28;19928;-69
2023/04/19 09:08:06;;;;;;;;;;;;;;;;;;5026054;28;20679;-67
2023/04/19 09:10:31;;;;;;;;;;;;;;;;;;5023297;28;20487;-67
2023/04/19 09:12:56;;;;;;;;;;;;;;;;;;5038608;28;20363;-69
2023/04/19 09:15:22;;;;;;;;;;;;;;;;;;5023622;28;21446;-67
2023/04/19 09:17:47;;;;;;;;;;;;;;;;;;5007949;28;19971;-68
2023/04/19 09:20:13;;;;;;;;;;;;;;;;;;5009714;28;19916;-66
2023/04/19 09:22:41;;;;;;;;;;;;;;;;;;5028598;28;20144;-67
2023/04/19 09:25:07;;;;;;;;;;;;;;;;;;5021610;28;20430;-70
2023/04/19 09:27:32;;;;;;;;;;;;;;;;;;5023495;28;19920;-69
2023/04/19 09:32:48;;;;;;;;;;;;;;;;;;5024073;28;19967;-68
2023/04/19 09:35:17;;;;;;;;;;;;;;;;;;5022922;28;20443;-68
2023/04/19 09:40:59;;;;;;;;;;;;;;;;;;5022831;28;19931;-67
2023/04/19 09:43:24;;;;;;;;;;;;;;;;;;5025551;28;19917;-69
2023/04/19 09:45:50;;;;;;;;;;;;;;;;;;5024505;28;20023;-68
2023/04/19 09:48:18;;;;;;;;;;;;;;;;;;5043354;28;19921;-65
2023/04/19 09:50:44;;;;;;;;;;;;;;;;;;5026751;28;19916;-69
2023/04/19 09:53:09;;;;;;;;;;;;;;;;;;5025118;28;20674;-70
2023/04/19 09:55:53;;;;;;;;;;;;;;;;;;5025412;28;19923;-68
2023/04/19 09:58:18;;;;;;;;;;;;;;;;;;5027539;28;20177;-67
2023/04/19 10:00:46;;;;;;;;;;;;;;;;;;5043313;28;19917;-71
2023/04/19 10:03:11;;;;;;;;;;;;;;;;;;5025331;28;19927;-69
2023/04/19 10:05:37;;;;;;;;;;;;;;;;;;5022313;28;19920;-67
2023/04/19 10:08:02;;;;;;;;;;;;;;;;;;5027168;28;19924;-68
2023/04/19 10:10:27;;;;;;;;;;;;;;;;;;5025138;28;19950;-72
2023/04/19 10:12:53;;;;;;;;;;;;;;;;;;5042552;28;19916;-67
2023/04/19 10:15:21;;;;;;;;;;;;;;;;;;5025827;28;19959;-68
2023/04/19 10:17:47;;;;;;;;;;;;;;;;;;5025537;28;20015;-68
2023/04/19 10:20:12;;;;;;;;;;;;;;;;;;5025476;28;20351;-67
2023/04/19 10:22:38;;;;;;;;;;;;;;;;;;5025031;28;19967;-66
2023/04/19 10:25:03;;;;;;;;;;;;;;;;;;5042587;28;20054;-67
2023/04/19 10:27:29;;;;;;;;;;;;;;;;;;5042356;28;19920;-69
2023/04/19 10:29:54;;;;;;;;;;;;;;;;;;5043897;28;20401;-68
2023/04/19 10:32:20;;;;;;;;;;;;;;;;;;5007925;28;19977;-66
2023/04/19 10:34:45;;;;;;;;;;;;;;;;;;5044259;28;19923;-67
2023/04/19 10:40:30;;;;;;;;;;;;;;;;;;5044402;28;20406;-65
2023/04/19 10:42:55;;;;;;;;;;;;;;;;;;5026292;28;19927;-62
2023/04/19 10:45:21;;;;;;;;;;;;;;;;;;5025406;28;20223;-67
2023/04/19 10:51:03;;;;;;;;;;;;;;;;;;5040913;28;20299;-66
2023/04/19 10:53:29;;;;;;;;;;;;;;;;;;5026609;28;20629;-67
2023/04/19 10:55:57;;;;;;;;;;;;;;;;;;5041017;28;19916;-65
2023/04/19 10:58:23;;;;;;;;;;;;;;;;;;5044662;28;20411;-66
2023/04/19 11:00:49;;;;;;;;;;;;;;;;;;5041281;28;20003;-69
2023/04/19 11:03:14;;;;;;;;;;;;;;;;;;5044462;28;20257;-66
2023/04/19 11:05:40;;;;;;;;;;;;;;;;;;5041439;28;19921;-67
2023/04/19 11:08:05;;;;;;;;;;;;;;;;;;5025067;28;19945;-70
2023/04/19 11:10:31;;;;;;;;;;;;;;;;;;5023560;28;20513;-66
2023/04/19 11:12:56;;;;;;;;;;;;;;;;;;5039822;28;19920;-67
2023/04/19 11:15:23;;;;;;;;;;;;;;;;;;5007885;28;19917;-69
2023/04/19 11:17:51;;;;;;;;;;;;;;;;;;5041238;28;19920;-66
2023/04/19 11:20:17;;;;;;;;;;;;;;;;;;5040898;28;19973;-68
2023/04/19 11:22:43;;;;;;;;;;;;;;;;;;5040715;28;20517;-68
2023/04/19 11:25:09;;;;;;;;;;;;;;;;;;5040427;28;19924;-67
2023/04/19 11:27:35;;;;;;;;;;;;;;;;;;5024097;28;21236;-67
2023/04/19 11:30:00;;;;;;;;;;;;;;;;;;5025040;28;19928;-66
2023/04/19 11:32:26;;;;;;;;;;;;;;;;;;5044383;28;20301;-69
2023/04/19 11:34:53;;;;;;;;;;;;;;;;;;5047062;28;20920;-67
2023/04/19 11:37:18;;;;;;;;;;;;;;;;;;5047626;28;19967;-67
2023/04/19 11:39:45;;;;;;;;;;;;;;;;;;5045844;28;19999;-64
2023/04/19 11:42:10;;;;;;;;;;;;;;;;;;5012999;28;19962;-67
2023/04/19 11:44:38;;;;;;;;;;;;;;;;;;5048337;28;19967;-67
2023/04/19 11:47:07;;;;;;;;;;;;;;;;;;5042028;28;20027;-67
2023/04/19 11:49:34;;;;;;;;;;;;;;;;;;5027586;28;19924;-66
2023/04/19 11:52:03;;;;;;;;;;;;;;;;;;5044576;28;19932;-66
2023/04/19 11:54:31;;;;;;;;;;;;;;;;;;5046518;28;21363;-65
2023/04/19 11:56:59;;;;;;;;;;;;;;;;;;5028299;28;20277;-67
2023/04/19 11:59:27;;;;;;;;;;;;;;;;;;5045767;28;19916;-66
2023/04/19 12:01:52;;;;;;;;;;;;;;;;;;5044297;28;19965;-66
2023/04/19 12:04:17;;;;;;;;;;;;;;;;;;5041453;28;19925;-66
2023/04/19 12:06:43;;;;;;;;;;;;;;;;;;5044468;28;19989;-64
2023/04/19 12:09:11;;;;;;;;;;;;;;;;;;5042503;28;19928;-66
2023/04/19 12:11:39;;;;;;;;;;;;;;;;;;5045219;28;19943;-64
2023/04/19 12:14:05;;;;;;;;;;;;;;;;;;5025886;28;20330;-66
2023/04/19 12:16:33;;;;;;;;;;;;;;;;;;5023199;28;19920;-66
2023/04/19 12:19:01;;;;;;;;;;;;;;;;;;5008600;28;20418;-67
2023/04/19 12:21:28;;;;;;;;;;;;;;;;;;5045199;28;19924;-67
2023/04/19 12:23:54;;;;;;;;;;;;;;;;;;5011826;28;19926;-68
2023/04/19 12:26:20;;;;;;;;;;;;;;;;;;5043996;28;20029;-67
2023/04/19 12:28:45;;;;;;;;;;;;;;;;;;5046913;28;20015;-69
2023/04/19 12:31:11;;;;;;;;;;;;;;;;;;5042124;28;20268;-69
2023/04/19 12:33:39;;;;;;;;;;;;;;;;;;5023881;28;19927;-67
2023/04/19 12:36:04;;;;;;;;;;;;;;;;;;5044228;28;19916;-64
2023/04/19 12:38:30;;;;;;;;;;;;;;;;;;5008407;28;20631;-66
2023/04/19 12:40:59;;;;;;;;;;;;;;;;;;5028023;28;20521;-65
2023/04/19 12:43:25;;;;;;;;;;;;;;;;;;5030094;28;20200;-64
2023/04/19 12:45:50;;;;;;;;;;;;;;;;;;5041859;28;20283;-66
2023/04/19 12:48:15;;;;;;;;;;;;;;;;;;5028403;28;19929;-65
2023/04/19 12:50:41;;;;;;;;;;;;;;;;;;5046267;28;19920;-65
2023/04/19 12:53:09;;;;;;;;;;;;;;;;;;5010303;28;19921;-66
2023/04/19 12:55:37;;;;;;;;;;;;;;;;;;5027094;28;19920;-65
2023/04/19 12:58:02;;;;;;;;;;;;;;;;;;5027444;28;20395;-66
2023/04/19 13:00:29;;;;;;;;;;;;;;;;;;5043054;28;19931;-65
2023/04/19 13:03:03;;;;;;;;;;;;;;;;;;5040674;28;19921;-65
2023/04/19 13:05:32;;;;;;;;;;;;;;;;;;5042167;28;19927;-67
2023/04/19 13:07:57;;;;;;;;;;;;;;;;;;5026968;28;20361;-66
2023/04/19 13:10:23;;;;;;;;;;;;;;;;;;5044498;28;20715;-67
2023/04/19 13:12:48;;;;;;;;;;;;;;;;;;5043819;28;19925;-64
2023/04/19 13:15:14;;;;;;;;;;;;;;;;;;5045022;28;19931;-66
2023/04/19 13:17:42;;;;;;;;;;;;;;;;;;5044224;28;19927;-71
2023/04/19 13:20:10;;;;;;;;;;;;;;;;;;5043875;28;19954;-66
2023/04/19 13:22:38;;;;;;;;;;;;;;;;;;5011636;28;19923;-63
2023/04/19 13:25:06;;;;;;;;;;;;;;;;;;5038470;28;19916;-67
2023/04/19 13:27:31;;;;;;;;;;;;;;;;;;5018653;28;19917;-66
2023/04/19 13:29:57;;;;;;;;;;;;;;;;;;5036650;28;20274;-66
2023/04/19 13:32:22;;;;;;;;;;;;;;;;;;5040423;28;19920;-68
2023/04/19 13:34:48;;;;;;;;;;;;;;;;;;5042344;28;19920;-66
2023/04/19 13:37:13;;;;;;;;;;;;;;;;;;5024461;28;19923;-66
2023/04/19 13:39:38;;;;;;;;;;;;;;;;;;5020284;28;19920;-65
2023/04/19 13:42:07;;;;;;;;;;;;;;;;;;5039340;28;19917;-66
2023/04/19 13:44:32;;;;;;;;;;;;;;;;;;5022328;28;20405;-65
2023/04/19 13:56:21;;;;;;;;;;;;;;;;;;5022164;28;20360;-65
2023/04/19 13:58:46;;;;;;;;;;;;;;;;;;5023724;28;19923;-65
2023/04/19 14:01:13;;;;;;;;;;;;;;;;;;5010292;28;19954;-64
2023/04/19 14:04:03;;;;;;;;;;;;;;;;;;5023468;28;19923;-65
2023/04/19 14:06:54;;;;;;;;;;;;;;;;;;5018817;28;20055;-66
2023/04/19 14:09:18;;;;;;;;;;;;;;;;;;5018294;28;19973;-67
2023/04/19 14:11:48;;;;;;;;;;;;;;;;;;4985978;28;19925;-65
2023/04/19 14:17:31;;;;;;;;;;;;;;;;;;5023007;28;20004;-66
2023/04/19 14:19:59;;;;;;;;;;;;;;;;;;4986029;28;20008;-64
2023/04/19 14:22:28;;;;;;;;;;;;;;;;;;4980557;28;20149;-64
2023/04/19 14:24:57;;;;;;;;;;;;;;;;;;5007099;28;20692;-66
2023/04/19 14:27:25;;;;;;;;;;;;;;;;;;4998475;28;19997;-66
2023/04/19 14:30:09;;;;;;;;;;;;;;;;;;;;;
2023/04/19 14:33:04;;;;;;;;;;;;;;;;;;5019253;28;20007;-65
2023/04/19 14:45:28;;;;;;;;;;;;;;;;;;5022405;28;19963;-64
2023/04/19 14:54:33;;;;;;;;;;;;;;;;;;5021692;28;19970;-65
2023/04/19 14:57:02;;;;;;;;;;;;;;;;;;5020707;28;20446;-64
2023/04/19 14:59:49;;;;;;;;;;;;;;;;;;5016376;28;19929;-63
2023/04/19 15:05:09;;;;;;;;;;;;;;;;;;5010400;28;19932;-64
2023/04/19 15:07:34;;;;;;;;;;;;;;;;;;5023966;28;19916;-65
2023/04/19 15:10:12;;;;;;;;;;;;;;;;;;5022039;28;21142;-66
2023/04/19 15:12:38;;;;;;;;;;;;;;;;;;5025052;28;19981;-65
2023/04/19 15:15:09;;;;;;;;;;;;;;;;;;5019996;28;19932;-64
2023/04/19 15:17:34;;;;;;;;;;;;;;;;;;5026087;28;20394;-64
2023/04/19 15:20:08;;;;;;;;;;;;;;;;;;5043149;28;19921;-64
2023/04/19 15:22:40;;;;;;;;;;;;;;;;;;5021013;28;19920;-64
2023/04/19 15:25:24;;;;;;;;;;;;;;;;;;5035255;28;20002;-65
2023/04/19 15:27:50;;;;;;;;;;;;;;;;;;5009590;28;19974;-67
2023/04/19 15:30:15;;;;;;;;;;;;;;;;;;5025027;28;21478;-66
2023/04/19 15:32:40;;;;;;;;;;;;;;;;;;5023566;28;20399;-66
2023/04/19 15:35:09;;;;;;;;;;;;;;;;;;5008022;28;19924;-65
2023/04/19 15:40:47;;;;;;;;;;;;;;;;;;4989177;28;19921;-66
2023/04/19 15:43:17;;;;;;;;;;;;;;;;;;5021421;28;20111;-64
2023/04/19 15:45:43;;;;;;;;;;;;;;;;;;5022660;28;21550;-65
2023/04/19 15:48:12;;;;;;;;;;;;;;;;;;5040687;28;20502;-65
2023/04/19 15:50:46;;;;;;;;;;;;;;;;;;5022309;28;19932;-64
2023/04/19 15:53:15;;;;;;;;;;;;;;;;;;5038104;28;20019;-65
2023/04/19 15:55:46;;;;;;;;;;;;;;;;;;5021078;28;19951;-65
2023/04/19 15:58:30;;;;;;;;;;;;;;;;;;5024484;28;20348;-65
2023/04/19 16:01:01;;;;;;;;;;;;;;;;;;5026731;28;20298;-64
2023/04/19 16:03:49;;;;;;;;;;;;;;;;;;5026960;28;20018;-68
2023/04/19 16:06:14;;;;;;;;;;;;;;;;;;5025016;28;19920;-65
2023/04/19 16:08:42;;;;;;;;;;;;;;;;;;5022049;28;20388;-64
2023/04/19 16:11:10;;;;;;;;;;;;;;;;;;5022685;28;21449;-64
2023/04/19 16:13:38;;;;;;;;;;;;;;;;;;5036162;28;19921;-64
2023/04/19 16:16:07;;;;;;;;;;;;;;;;;;5022763;28;20479;-64
2023/04/19 16:18:52;;;;;;;;;;;;;;;;;;5043293;28;19921;-66
2023/04/19 16:21:29;;;;;;;;;;;;;;;;;;;;;
2023/04/19 16:24:36;;;;;;;;;;;;;;;;;;5024513;28;19983;-65
2023/04/19 16:27:05;;;;;;;;;;;;;;;;;;5023517;28;20014;-64
2023/04/19 16:29:33;;;;;;;;;;;;;;;;;;5007384;28;20478;-65
2023/04/19 16:35:26;;;;;;;;;;;;;;;;;;4988603;28;20090;-64
2023/04/19 16:38:11;;;;;;;;;;;;;;;;;;5038231;28;19983;-66
2023/04/19 16:40:37;;;;;;;;;;;;;;;;;;5022551;28;19928;-64
2023/04/19 16:43:19;;;;;;;;;;;;;;;;;;5023849;28;19920;-65
2023/04/19 16:45:55;;;;;;;;;;;;;;;;;;5037097;28;20099;-64
2023/04/19 16:48:20;;;;;;;;;;;;;;;;;;5023251;28;19924;-63
2023/04/19 16:57:01;;;;;;;;;;;;;;;;;;5025975;28;19981;-63
2023/04/19 16:59:58;;;;;;;;;;;;;;;;;;5041533;28;19926;-65
2023/04/19 17:02:28;;;;;;;;;;;;;;;;;;5038646;28;20359;-64
2023/04/19 17:04:54;;;;;;;;;;;;;;;;;;5004158;28;20405;-66
2023/04/19 17:07:22;;;;;;;;;;;;;;;;;;5007580;28;19924;-65
2023/04/19 17:09:48;;;;;;;;;;;;;;;;;;5019971;28;19993;-66
2023/04/19 17:12:13;;;;;;;;;;;;;;;;;;5009841;28;20361;-67
2023/04/19 17:14:39;;;;;;;;;;;;;;;;;;5024996;28;19925;-64
2023/04/19 17:17:14;;;;;;;;;;;;;;;;;;5044031;28;20010;-67
2023/04/19 17:19:40;;;;;;;;;;;;;;;;;;5025268;28;19943;-66
2023/04/19 17:22:05;;;;;;;;;;;;;;;;;;5040896;28;19927;-65
2023/04/19 17:24:33;;;;;;;;;;;;;;;;;;5021916;28;20307;-66
2023/04/19 17:27:01;;;;;;;;;;;;;;;;;;5045881;28;19916;-65
2023/04/19 17:29:27;;;;;;;;;;;;;;;;;;5041989;28;19978;-65
2023/04/19 17:31:57;;;;;;;;;;;;;;;;;;5024188;28;20751;-66
2023/04/19 17:34:24;;;;;;;;;;;;;;;;;;5042302;28;20314;-65
2023/04/19 17:36:50;;;;;;;;;;;;;;;;;;5039239;28;19916;-66
2023/04/19 17:39:20;;;;;;;;;;;;;;;;;;5045415;28;19922;-68
2023/04/19 17:41:46;;;;;;;;;;;;;;;;;;5040294;28;19927;-66
2023/04/19 17:44:11;;;;;;;;;;;;;;;;;;5024856;28;19920;-65
2023/04/19 17:46:42;;;;;;;;;;;;;;;;;;5041626;28;19924;-65
2023/04/19 17:49:11;;;;;;;;;;;;;;;;;;5022801;28;20377;-65
2023/04/19 17:51:39;;;;;;;;;;;;;;;;;;5043130;28;19920;-66
2023/04/19 17:54:06;;;;;;;;;;;;;;;;;;5036588;28;19924;-65
2023/04/19 17:56:32;;;;;;;;;;;;;;;;;;5020138;28;20432;-65
2023/04/19 17:58:59;;;;;;;;;;;;;;;;;;5019259;28;20391;-64
2023/04/19 18:01:28;;;;;;;;;;;;;;;;;;5023859;28;20485;-66
2023/04/19 18:03:57;;;;;;;;;;;;;;;;;;5035030;28;19920;-65
2023/04/19 18:06:23;;;;;;;;;;;;;;;;;;5025345;28;19925;-64
2023/04/19 18:08:49;;;;;;;;;;;;;;;;;;5024701;28;20127;-64
2023/04/19 18:11:16;;;;;;;;;;;;;;;;;;5025552;28;20395;-65
2023/04/19 18:13:42;;;;;;;;;;;;;;;;;;5020858;28;19974;-65
2023/04/19 18:16:10;;;;;;;;;;;;;;;;;;5001989;28;19916;-66
2023/04/19 18:18:36;;;;;;;;;;;;;;;;;;5005634;28;20178;-66
2023/04/19 18:21:01;;;;;;;;;;;;;;;;;;5020515;28;20005;-64
2023/04/19 18:23:35;;;;;;;;;;;;;;;;;;5039132;28;19920;-65
2023/04/19 18:26:04;;;;;;;;;;;;;;;;;;5035156;28;20004;-64
2023/04/19 18:28:29;;;;;;;;;;;;;;;;;;5020923;28;19927;-65
2023/04/19 18:30:55;;;;;;;;;;;;;;;;;;5024074;28;20378;-65
2023/04/19 18:33:21;;;;;;;;;;;;;;;;;;5034539;28;19925;-66
2023/04/19 18:35:46;;;;;;;;;;;;;;;;;;5036408;28;20365;-65
2023/04/19 18:38:12;;;;;;;;;;;;;;;;;;5022536;28;19990;-66
2023/04/19 18:40:40;;;;;;;;;;;;;;;;;;5020610;28;19968;-65
2023/04/19 18:43:05;;;;;;;;;;;;;;;;;;5021622;28;20538;-66
2023/04/19 18:45:30;;;;;;;;;;;;;;;;;;5022765;28;20592;-65
2023/04/19 18:47:56;;;;;;;;;;;;;;;;;;5021466;28;20482;-65
2023/04/19 18:50:24;;;;;;;;;;;;;;;;;;5023652;28;19920;-66
2023/04/19 18:52:52;;;;;;;;;;;;;;;;;;5020734;28;20406;-65
2023/04/19 18:55:21;;;;;;;;;;;;;;;;;;5024106;28;20023;-65
2023/04/19 18:57:46;;;;;;;;;;;;;;;;;;5038291;28;19921;-66
2023/04/19 19:00:16;;;;;;;;;;;;;;;;;;5022083;28;19928;-65
2023/04/19 19:02:47;;;;;;;;;;;;;;;;;;5021353;28;19921;-64
2023/04/19 19:05:15;;;;;;;;;;;;;;;;;;5037029;28;20346;-64
2023/04/19 19:07:41;;;;;;;;;;;;;;;;;;5022744;28;20427;-65
2023/04/19 19:10:06;;;;;;;;;;;;;;;;;;5022720;28;20041;-65
2023/04/19 19:12:34;;;;;;;;;;;;;;;;;;5039144;28;19921;-64
2023/04/19 19:15:00;;;;;;;;;;;;;;;;;;5020462;28;20092;-64
2023/04/19 19:17:25;;;;;;;;;;;;;;;;;;5021464;28;19921;-65
2023/04/19 19:19:53;;;;;;;;;;;;;;;;;;5019183;28;20364;-65
2023/04/19 19:22:21;;;;;;;;;;;;;;;;;;5021843;28;19981;-64
2023/04/19 19:24:50;;;;;;;;;;;;;;;;;;5021435;28;19931;-65
2023/04/19 19:27:15;;;;;;;;;;;;;;;;;;5020970;28;20331;-64
2023/04/19 19:29:41;;;;;;;;;;;;;;;;;;5022760;28;19921;-65
2023/04/19 19:32:08;;;;;;;;;;;;;;;;;;5018469;28;19921;-66
2023/04/19 19:34:36;;;;;;;;;;;;;;;;;;5022253;28;20416;-66
2023/04/19 19:37:04;;;;;;;;;;;;;;;;;;5023618;28;19975;-65